sensor_id;sensor_type;location;lat;lon;timestamp;temperature;humidity
7970;DHT22;4030;52.362;9.206;2023-12-28T00:00:05;8.90;99.90
7970;DHT22;4030;52.362;9.206;2023-12-28T00:02:32;8.90;99.90
7970;DHT22;4030;52.362;9.206;2023-12-28T00:04:58;8.90;99.90
7970;DHT22;4030;52.362;9.206;2023-12-28T00:07:23;8.90;99.90
7970;DHT22;4030;52.362;9.206;2023-12-28T00:09:49;9.00;99.90
7970;DHT22;4030;52.362;9.206;2023-12-28T00:12:15;9.00;99.90
7970;DHT22;4030;52.362;9.206;2023-12-28T00:14:40;9.00;99.90
7970;DHT22;4030;52.362;9.206;2023-12-28T00:17:06;9.00;99.90
7970;DHT22;4030;52.362;9.206;2023-12-28T00:19:32;9.00;99.90
7970;DHT22;4030;52.362;9.206;2023-12-28T00:21:57;9.00;99.90
7970;DHT22;4030;52.362;9.206;2023-12-28T00:24:23;9.00;99.90
7970;DHT22;4030;52.362;9.206;2023-12-28T00:26:49;9.00;99.90
7970;DHT22;4030;52.362;9.206;2023-12-28T00:29:14;9.00;99.90
7970;DHT22;4030;52.362;9.206;2023-12-28T00:31:40;9.10;99.90
7970;DHT22;4030;52.362;9.206;2023-12-28T00:34:05;9.00;99.90
7970;DHT22;4030;52.362;9.206;2023-12-28T00:36:31;9.10;99.90
7970;DHT22;4030;52.362;9.206;2023-12-28T00:38:57;9.00;99.90
7970;DHT22;4030;52.362;9.206;2023-12-28T00:41:23;9.00;99.90
7970;DHT22;4030;52.362;9.206;2023-12-28T00:43:48;9.10;99.90
7970;DHT22;4030;52.362;9.206;2023-12-28T00:46:14;9.00;99.90
7970;DHT22;4030;52.362;9.206;2023-12-28T00:48:39;9.00;99.90
7970;DHT22;4030;52.362;9.206;2023-12-28T00:51:05;9.00;99.90
7970;DHT22;4030;52.362;9.206;2023-12-28T00:53:31;9.00;99.90
7970;DHT22;4030;52.362;9.206;2023-12-28T00:55:56;9.00;99.90
7970;DHT22;4030;52.362;9.206;2023-12-28T00:58:22;9.00;99.90
7970;DHT22;4030;52.362;9.206;2023-12-28T01:00:48;9.00;99.90
7970;DHT22;4030;52.362;9.206;2023-12-28T01:03:13;9.00;99.90
7970;DHT22;4030;52.362;9.206;2023-12-28T01:05:39;9.00;99.90
7970;DHT22;4030;52.362;9.206;2023-12-28T01:08:05;9.00;99.90
7970;DHT22;4030;52.362;9.206;2023-12-28T01:10:31;9.00;99.90
7970;DHT22;4030;52.362;9.206;2023-12-28T01:12:56;9.00;99.90
7970;DHT22;4030;52.362;9.206;2023-12-28T01:15:22;9.00;99.90
7970;DHT22;4030;52.362;9.206;2023-12-28T01:17:47;9.00;99.90
7970;DHT22;4030;52.362;9.206;2023-12-28T01:20:13;9.00;99.90
7970;DHT22;4030;52.362;9.206;2023-12-28T01:22:39;9.00;99.90
7970;DHT22;4030;52.362;9.206;2023-12-28T01:25:05;9.00;99.90
7970;DHT22;4030;52.362;9.206;2023-12-28T01:27:30;9.00;99.90
7970;DHT22;4030;52.362;9.206;2023-12-28T01:29:56;9.00;99.90
7970;DHT22;4030;52.362;9.206;2023-12-28T01:32:22;9.00;99.90
7970;DHT22;4030;52.362;9.206;2023-12-28T01:34:47;9.00;99.90
7970;DHT22;4030;52.362;9.206;2023-12-28T01:37:13;9.00;99.90
7970;DHT22;4030;52.362;9.206;2023-12-28T01:39:39;9.00;99.90
7970;DHT22;4030;52.362;9.206;2023-12-28T01:42:05;9.00;99.90
7970;DHT22;4030;52.362;9.206;2023-12-28T01:44:30;9.00;99.90
7970;DHT22;4030;52.362;9.206;2023-12-28T01:46:56;9.00;99.90
7970;DHT22;4030;52.362;9.206;2023-12-28T01:49:23;9.00;99.90
7970;DHT22;4030;52.362;9.206;2023-12-28T01:51:49;9.00;99.90
7970;DHT22;4030;52.362;9.206;2023-12-28T01:54:16;9.00;99.90
7970;DHT22;4030;52.362;9.206;2023-12-28T01:56:43;10.80;99.90
7970;DHT22;4030;52.362;9.206;2023-12-28T01:59:09;9.00;99.90
7970;DHT22;4030;52.362;9.206;2023-12-28T02:01:35;9.00;99.90
7970;DHT22;4030;52.362;9.206;2023-12-28T02:04:01;9.00;99.90
7970;DHT22;4030;52.362;9.206;2023-12-28T02:06:28;9.00;99.90
7970;DHT22;4030;52.362;9.206;2023-12-28T02:08:54;9.00;99.90
7970;DHT22;4030;52.362;9.206;2023-12-28T02:11:20;9.00;99.90
7970;DHT22;4030;52.362;9.206;2023-12-28T02:13:46;9.00;99.90
7970;DHT22;4030;52.362;9.206;2023-12-28T02:16:18;9.00;99.90
7970;DHT22;4030;52.362;9.206;2023-12-28T02:19:02;9.00;99.90
7970;DHT22;4030;52.362;9.206;2023-12-28T02:21:33;9.00;99.90
7970;DHT22;4030;52.362;9.206;2023-12-28T02:23:59;9.00;99.90
7970;DHT22;4030;52.362;9.206;2023-12-28T02:26:24;9.00;99.90
7970;DHT22;4030;52.362;9.206;2023-12-28T02:28:50;9.00;99.90
7970;DHT22;4030;52.362;9.206;2023-12-28T02:31:27;9.10;99.90
7970;DHT22;4030;52.362;9.206;2023-12-28T02:34:00;9.10;99.90
7970;DHT22;4030;52.362;9.206;2023-12-28T02:36:30;9.00;99.90
7970;DHT22;4030;52.362;9.206;2023-12-28T02:38:56;9.00;99.90
7970;DHT22;4030;52.362;9.206;2023-12-28T02:41:25;9.10;99.90
7970;DHT22;4030;52.362;9.206;2023-12-28T02:43:51;9.10;99.90
7970;DHT22;4030;52.362;9.206;2023-12-28T02:46:17;9.10;99.90
7970;DHT22;4030;52.362;9.206;2023-12-28T02:48:43;9.10;99.90
7970;DHT22;4030;52.362;9.206;2023-12-28T02:51:09;9.10;99.90
7970;DHT22;4030;52.362;9.206;2023-12-28T02:53:34;9.10;99.90
7970;DHT22;4030;52.362;9.206;2023-12-28T02:56:00;9.10;99.90
7970;DHT22;4030;52.362;9.206;2023-12-28T02:58:26;9.10;99.90
7970;DHT22;4030;52.362;9.206;2023-12-28T03:00:51;9.10;99.90
7970;DHT22;4030;52.362;9.206;2023-12-28T03:03:17;9.10;99.90
7970;DHT22;4030;52.362;9.206;2023-12-28T03:05:43;9.10;99.90
7970;DHT22;4030;52.362;9.206;2023-12-28T03:08:08;9.10;99.90
7970;DHT22;4030;52.362;9.206;2023-12-28T03:10:34;9.10;99.90
7970;DHT22;4030;52.362;9.206;2023-12-28T03:12:59;9.10;99.90
7970;DHT22;4030;52.362;9.206;2023-12-28T03:15:26;9.10;99.90
7970;DHT22;4030;52.362;9.206;2023-12-28T03:17:51;9.10;99.90
7970;DHT22;4030;52.362;9.206;2023-12-28T03:20:17;9.10;99.90
7970;DHT22;4030;52.362;9.206;2023-12-28T03:22:43;9.20;99.90
7970;DHT22;4030;52.362;9.206;2023-12-28T03:25:09;9.20;99.90
7970;DHT22;4030;52.362;9.206;2023-12-28T03:27:34;9.20;99.90
7970;DHT22;4030;52.362;9.206;2023-12-28T03:30:00;9.20;99.90
7970;DHT22;4030;52.362;9.206;2023-12-28T03:32:26;9.20;99.90
7970;DHT22;4030;52.362;9.206;2023-12-28T03:34:51;9.20;99.90
7970;DHT22;4030;52.362;9.206;2023-12-28T03:37:17;9.20;99.90
7970;DHT22;4030;52.362;9.206;2023-12-28T03:39:43;9.20;99.90
7970;DHT22;4030;52.362;9.206;2023-12-28T03:42:09;9.20;99.90
7970;DHT22;4030;52.362;9.206;2023-12-28T03:44:35;9.20;99.90
7970;DHT22;4030;52.362;9.206;2023-12-28T03:47:00;9.20;99.90
7970;DHT22;4030;52.362;9.206;2023-12-28T03:49:26;9.20;99.90
7970;DHT22;4030;52.362;9.206;2023-12-28T03:51:52;9.20;99.90
7970;DHT22;4030;52.362;9.206;2023-12-28T03:54:18;9.20;99.90
7970;DHT22;4030;52.362;9.206;2023-12-28T03:56:46;9.20;99.90
7970;DHT22;4030;52.362;9.206;2023-12-28T03:59:12;9.20;99.90
7970;DHT22;4030;52.362;9.206;2023-12-28T04:01:37;9.20;99.90
7970;DHT22;4030;52.362;9.206;2023-12-28T04:04:03;9.30;99.90
7970;DHT22;4030;52.362;9.206;2023-12-28T04:06:29;9.30;99.90
7970;DHT22;4030;52.362;9.206;2023-12-28T04:08:55;9.30;99.90
7970;DHT22;4030;52.362;9.206;2023-12-28T04:11:20;9.30;99.90
7970;DHT22;4030;52.362;9.206;2023-12-28T04:13:46;9.30;99.90
7970;DHT22;4030;52.362;9.206;2023-12-28T04:16:15;9.30;99.90
7970;DHT22;4030;52.362;9.206;2023-12-28T04:18:42;9.30;99.90
7970;DHT22;4030;52.362;9.206;2023-12-28T04:21:09;9.30;99.90
7970;DHT22;4030;52.362;9.206;2023-12-28T04:23:36;9.30;99.90
7970;DHT22;4030;52.362;9.206;2023-12-28T04:26:03;9.30;99.90
7970;DHT22;4030;52.362;9.206;2023-12-28T04:28:28;9.30;99.90
7970;DHT22;4030;52.362;9.206;2023-12-28T04:30:54;9.30;99.90
7970;DHT22;4030;52.362;9.206;2023-12-28T04:33:20;9.30;99.90
7970;DHT22;4030;52.362;9.206;2023-12-28T04:35:45;9.30;99.90
7970;DHT22;4030;52.362;9.206;2023-12-28T04:38:12;9.30;99.90
7970;DHT22;4030;52.362;9.206;2023-12-28T04:40:38;9.30;99.90
7970;DHT22;4030;52.362;9.206;2023-12-28T04:43:04;9.30;99.90
7970;DHT22;4030;52.362;9.206;2023-12-28T04:45:30;9.30;99.90
7970;DHT22;4030;52.362;9.206;2023-12-28T04:47:55;9.30;99.90
7970;DHT22;4030;52.362;9.206;2023-12-28T04:50:21;9.30;99.90
7970;DHT22;4030;52.362;9.206;2023-12-28T04:52:46;9.30;99.90
7970;DHT22;4030;52.362;9.206;2023-12-28T04:55:13;9.30;99.90
7970;DHT22;4030;52.362;9.206;2023-12-28T04:57:41;9.30;99.90
7970;DHT22;4030;52.362;9.206;2023-12-28T05:00:07;9.30;99.90
7970;DHT22;4030;52.362;9.206;2023-12-28T05:02:34;9.30;99.90
7970;DHT22;4030;52.362;9.206;2023-12-28T05:04:59;9.30;99.90
7970;DHT22;4030;52.362;9.206;2023-12-28T05:07:25;9.30;99.90
7970;DHT22;4030;52.362;9.206;2023-12-28T05:09:51;9.30;99.90
7970;DHT22;4030;52.362;9.206;2023-12-28T05:12:17;9.30;99.90
7970;DHT22;4030;52.362;9.206;2023-12-28T05:14:42;9.40;99.90
7970;DHT22;4030;52.362;9.206;2023-12-28T05:17:08;9.40;99.90
7970;DHT22;4030;52.362;9.206;2023-12-28T05:19:34;9.40;99.90
7970;DHT22;4030;52.362;9.206;2023-12-28T05:21:59;9.40;99.90
7970;DHT22;4030;52.362;9.206;2023-12-28T05:24:29;9.40;99.90
7970;DHT22;4030;52.362;9.206;2023-12-28T05:26:55;9.40;99.90
7970;DHT22;4030;52.362;9.206;2023-12-28T05:29:20;9.40;99.90
7970;DHT22;4030;52.362;9.206;2023-12-28T05:31:46;9.40;99.90
7970;DHT22;4030;52.362;9.206;2023-12-28T05:34:11;9.40;99.90
7970;DHT22;4030;52.362;9.206;2023-12-28T05:36:37;9.40;99.90
7970;DHT22;4030;52.362;9.206;2023-12-28T05:39:03;9.40;99.90
7970;DHT22;4030;52.362;9.206;2023-12-28T05:41:29;9.40;99.90
7970;DHT22;4030;52.362;9.206;2023-12-28T05:43:55;9.40;99.90
7970;DHT22;4030;52.362;9.206;2023-12-28T05:46:20;9.50;99.90
7970;DHT22;4030;52.362;9.206;2023-12-28T05:48:46;9.50;99.90
7970;DHT22;4030;52.362;9.206;2023-12-28T05:51:12;9.50;99.90
7970;DHT22;4030;52.362;9.206;2023-12-28T05:53:37;9.50;99.90
7970;DHT22;4030;52.362;9.206;2023-12-28T05:56:03;9.50;99.90
7970;DHT22;4030;52.362;9.206;2023-12-28T05:58:29;9.50;99.90
7970;DHT22;4030;52.362;9.206;2023-12-28T06:00:55;9.50;99.90
7970;DHT22;4030;52.362;9.206;2023-12-28T06:03:20;9.50;99.90
7970;DHT22;4030;52.362;9.206;2023-12-28T06:05:46;9.50;99.90
7970;DHT22;4030;52.362;9.206;2023-12-28T06:08:12;9.50;99.90
7970;DHT22;4030;52.362;9.206;2023-12-28T06:10:38;9.50;99.90
7970;DHT22;4030;52.362;9.206;2023-12-28T06:13:04;9.50;99.90
7970;DHT22;4030;52.362;9.206;2023-12-28T06:15:30;9.50;99.90
7970;DHT22;4030;52.362;9.206;2023-12-28T06:17:55;9.50;99.90
7970;DHT22;4030;52.362;9.206;2023-12-28T06:20:21;9.50;99.90
7970;DHT22;4030;52.362;9.206;2023-12-28T06:22:47;9.50;99.90
7970;DHT22;4030;52.362;9.206;2023-12-28T06:25:14;9.50;99.90
7970;DHT22;4030;52.362;9.206;2023-12-28T06:27:39;9.50;99.90
7970;DHT22;4030;52.362;9.206;2023-12-28T06:30:06;9.50;99.90
7970;DHT22;4030;52.362;9.206;2023-12-28T06:32:32;9.50;99.90
7970;DHT22;4030;52.362;9.206;2023-12-28T06:34:57;9.50;99.90
7970;DHT22;4030;52.362;9.206;2023-12-28T06:37:23;9.50;99.90
7970;DHT22;4030;52.362;9.206;2023-12-28T06:39:49;9.50;99.90
7970;DHT22;4030;52.362;9.206;2023-12-28T06:42:15;9.50;99.90
7970;DHT22;4030;52.362;9.206;2023-12-28T06:44:40;9.50;99.90
7970;DHT22;4030;52.362;9.206;2023-12-28T06:47:06;9.50;99.90
7970;DHT22;4030;52.362;9.206;2023-12-28T06:49:31;9.50;99.90
7970;DHT22;4030;52.362;9.206;2023-12-28T06:51:57;9.50;99.90
7970;DHT22;4030;52.362;9.206;2023-12-28T06:54:23;9.50;99.90
7970;DHT22;4030;52.362;9.206;2023-12-28T06:56:49;9.50;99.90
7970;DHT22;4030;52.362;9.206;2023-12-28T06:59:16;9.50;99.90
7970;DHT22;4030;52.362;9.206;2023-12-28T07:01:42;9.50;99.90
7970;DHT22;4030;52.362;9.206;2023-12-28T07:04:09;9.60;99.90
7970;DHT22;4030;52.362;9.206;2023-12-28T07:06:35;9.60;99.90
7970;DHT22;4030;52.362;9.206;2023-12-28T07:09:01;9.60;99.90
7970;DHT22;4030;52.362;9.206;2023-12-28T07:11:27;9.60;99.90
7970;DHT22;4030;52.362;9.206;2023-12-28T07:13:53;9.60;99.90
7970;DHT22;4030;52.362;9.206;2023-12-28T07:16:18;9.60;99.90
7970;DHT22;4030;52.362;9.206;2023-12-28T07:18:44;9.60;99.90
7970;DHT22;4030;52.362;9.206;2023-12-28T07:21:10;9.60;99.90
7970;DHT22;4030;52.362;9.206;2023-12-28T07:23:36;9.60;99.90
7970;DHT22;4030;52.362;9.206;2023-12-28T07:26:03;9.60;99.90
7970;DHT22;4030;52.362;9.206;2023-12-28T07:28:28;9.60;99.90
7970;DHT22;4030;52.362;9.206;2023-12-28T07:30:54;9.70;99.90
7970;DHT22;4030;52.362;9.206;2023-12-28T07:33:20;9.70;99.90
7970;DHT22;4030;52.362;9.206;2023-12-28T07:35:46;9.70;99.90
7970;DHT22;4030;52.362;9.206;2023-12-28T07:38:12;9.70;99.90
7970;DHT22;4030;52.362;9.206;2023-12-28T07:40:38;9.70;99.90
7970;DHT22;4030;52.362;9.206;2023-12-28T07:43:04;9.70;99.90
7970;DHT22;4030;52.362;9.206;2023-12-28T07:45:30;9.70;99.90
7970;DHT22;4030;52.362;9.206;2023-12-28T07:47:55;9.70;99.90
7970;DHT22;4030;52.362;9.206;2023-12-28T07:50:21;9.70;99.90
7970;DHT22;4030;52.362;9.206;2023-12-28T07:52:48;9.70;99.90
7970;DHT22;4030;52.362;9.206;2023-12-28T07:55:14;9.70;99.90
7970;DHT22;4030;52.362;9.206;2023-12-28T07:57:40;9.70;99.90
7970;DHT22;4030;52.362;9.206;2023-12-28T08:00:06;9.70;99.90
7970;DHT22;4030;52.362;9.206;2023-12-28T08:02:33;9.80;99.90
7970;DHT22;4030;52.362;9.206;2023-12-28T08:04:58;9.80;99.90
7970;DHT22;4030;52.362;9.206;2023-12-28T08:07:24;9.80;99.90
7970;DHT22;4030;52.362;9.206;2023-12-28T08:09:50;9.80;99.90
7970;DHT22;4030;52.362;9.206;2023-12-28T08:12:16;9.80;99.90
7970;DHT22;4030;52.362;9.206;2023-12-28T08:14:42;9.80;99.90
7970;DHT22;4030;52.362;9.206;2023-12-28T08:17:08;9.80;99.90
7970;DHT22;4030;52.362;9.206;2023-12-28T08:19:34;9.80;99.90
7970;DHT22;4030;52.362;9.206;2023-12-28T08:22:00;9.80;99.90
7970;DHT22;4030;52.362;9.206;2023-12-28T08:24:26;9.80;99.90
7970;DHT22;4030;52.362;9.206;2023-12-28T08:26:52;9.80;99.90
7970;DHT22;4030;52.362;9.206;2023-12-28T08:29:18;9.90;99.90
7970;DHT22;4030;52.362;9.206;2023-12-28T08:31:44;9.90;99.90
7970;DHT22;4030;52.362;9.206;2023-12-28T08:34:09;9.90;99.90
7970;DHT22;4030;52.362;9.206;2023-12-28T08:36:35;9.90;99.90
7970;DHT22;4030;52.362;9.206;2023-12-28T08:39:01;9.90;99.90
7970;DHT22;4030;52.362;9.206;2023-12-28T08:41:27;9.90;99.90
7970;DHT22;4030;52.362;9.206;2023-12-28T08:43:53;9.90;99.90
7970;DHT22;4030;52.362;9.206;2023-12-28T08:46:20;10.00;99.90
7970;DHT22;4030;52.362;9.206;2023-12-28T08:48:46;10.00;99.90
7970;DHT22;4030;52.362;9.206;2023-12-28T08:51:12;10.10;99.90
7970;DHT22;4030;52.362;9.206;2023-12-28T08:53:40;10.20;99.90
7970;DHT22;4030;52.362;9.206;2023-12-28T08:56:17;10.20;99.90
7970;DHT22;4030;52.362;9.206;2023-12-28T08:58:45;10.30;99.90
7970;DHT22;4030;52.362;9.206;2023-12-28T09:01:16;10.40;99.90
7970;DHT22;4030;52.362;9.206;2023-12-28T09:03:49;10.50;99.90
7970;DHT22;4030;52.362;9.206;2023-12-28T09:06:15;10.60;99.90
7970;DHT22;4030;52.362;9.206;2023-12-28T09:08:42;10.70;99.90
7970;DHT22;4030;52.362;9.206;2023-12-28T09:11:12;10.80;99.90
7970;DHT22;4030;52.362;9.206;2023-12-28T09:13:38;10.90;99.90
7970;DHT22;4030;52.362;9.206;2023-12-28T09:16:09;11.00;99.90
7970;DHT22;4030;52.362;9.206;2023-12-28T09:18:37;11.10;99.90
7970;DHT22;4030;52.362;9.206;2023-12-28T09:21:07;11.20;99.90
7970;DHT22;4030;52.362;9.206;2023-12-28T09:23:34;11.10;99.90
7970;DHT22;4030;52.362;9.206;2023-12-28T09:26:01;11.10;99.90
7970;DHT22;4030;52.362;9.206;2023-12-28T09:28:29;11.00;99.90
7970;DHT22;4030;52.362;9.206;2023-12-28T09:30:55;11.00;99.90
7970;DHT22;4030;52.362;9.206;2023-12-28T09:33:20;11.00;99.90
7970;DHT22;4030;52.362;9.206;2023-12-28T09:35:47;11.00;99.90
7970;DHT22;4030;52.362;9.206;2023-12-28T09:38:13;10.90;99.90
7970;DHT22;4030;52.362;9.206;2023-12-28T09:40:42;10.90;99.90
7970;DHT22;4030;52.362;9.206;2023-12-28T09:43:13;10.90;99.90
7970;DHT22;4030;52.362;9.206;2023-12-28T09:45:41;10.90;99.90
7970;DHT22;4030;52.362;9.206;2023-12-28T09:48:06;11.00;99.90
7970;DHT22;4030;52.362;9.206;2023-12-28T09:50:32;11.10;99.90
7970;DHT22;4030;52.362;9.206;2023-12-28T09:52:58;11.30;99.90
7970;DHT22;4030;52.362;9.206;2023-12-28T09:55:24;11.40;99.90
7970;DHT22;4030;52.362;9.206;2023-12-28T09:57:51;11.40;99.90
7970;DHT22;4030;52.362;9.206;2023-12-28T10:00:17;11.60;99.90
7970;DHT22;4030;52.362;9.206;2023-12-28T10:02:44;11.70;99.90
7970;DHT22;4030;52.362;9.206;2023-12-28T10:05:14;11.90;99.90
7970;DHT22;4030;52.362;9.206;2023-12-28T10:07:44;12.10;99.90
7970;DHT22;4030;52.362;9.206;2023-12-28T10:10:10;12.60;99.80
7970;DHT22;4030;52.362;9.206;2023-12-28T10:12:37;13.20;98.90
7970;DHT22;4030;52.362;9.206;2023-12-28T10:15:04;13.40;98.30
7970;DHT22;4030;52.362;9.206;2023-12-28T10:17:33;13.40;98.10
7970;DHT22;4030;52.362;9.206;2023-12-28T10:19:59;13.40;97.90
7970;DHT22;4030;52.362;9.206;2023-12-28T10:22:33;13.50;97.80
7970;DHT22;4030;52.362;9.206;2023-12-28T10:24:59;13.70;97.40
7970;DHT22;4030;52.362;9.206;2023-12-28T10:27:26;13.60;97.30
7970;DHT22;4030;52.362;9.206;2023-12-28T10:29:56;13.40;97.50
7970;DHT22;4030;52.362;9.206;2023-12-28T10:32:24;13.20;97.60
7970;DHT22;4030;52.362;9.206;2023-12-28T10:34:53;13.00;97.90
7970;DHT22;4030;52.362;9.206;2023-12-28T10:37:20;12.70;98.00
7970;DHT22;4030;52.362;9.206;2023-12-28T10:39:53;12.60;98.30
7970;DHT22;4030;52.362;9.206;2023-12-28T10:42:54;12.50;98.40
7970;DHT22;4030;52.362;9.206;2023-12-28T10:45:26;12.30;98.60
7970;DHT22;4030;52.362;9.206;2023-12-28T10:48:11;12.20;98.70
7970;DHT22;4030;52.362;9.206;2023-12-28T10:50:47;12.10;98.90
7970;DHT22;4030;52.362;9.206;2023-12-28T10:56:40;11.90;99.10
7970;DHT22;4030;52.362;9.206;2023-12-28T11:01:59;11.70;99.30
7970;DHT22;4030;52.362;9.206;2023-12-28T11:04:48;11.70;99.40
7970;DHT22;4030;52.362;9.206;2023-12-28T11:07:17;11.70;99.50
7970;DHT22;4030;52.362;9.206;2023-12-28T11:09:44;11.60;99.60
7970;DHT22;4030;52.362;9.206;2023-12-28T11:12:10;11.60;99.70
7970;DHT22;4030;52.362;9.206;2023-12-28T11:14:39;11.60;99.70
7970;DHT22;4030;52.362;9.206;2023-12-28T11:17:05;11.60;99.80
7970;DHT22;4030;52.362;9.206;2023-12-28T11:19:32;11.50;99.80
7970;DHT22;4030;52.362;9.206;2023-12-28T11:22:00;11.60;99.90
7970;DHT22;4030;52.362;9.206;2023-12-28T11:24:28;11.60;99.80
7970;DHT22;4030;52.362;9.206;2023-12-28T11:26:54;11.60;99.70
7970;DHT22;4030;52.362;9.206;2023-12-28T11:29:20;11.60;99.70
7970;DHT22;4030;52.362;9.206;2023-12-28T11:31:53;11.60;99.70
7970;DHT22;4030;52.362;9.206;2023-12-28T11:34:28;11.60;99.80
7970;DHT22;4030;52.362;9.206;2023-12-28T11:36:56;11.60;99.80
7970;DHT22;4030;52.362;9.206;2023-12-28T11:39:34;11.60;99.90
7970;DHT22;4030;52.362;9.206;2023-12-28T11:42:02;11.60;99.90
7970;DHT22;4030;52.362;9.206;2023-12-28T11:44:37;11.60;99.90
7970;DHT22;4030;52.362;9.206;2023-12-28T11:49:42;11.60;99.90
7970;DHT22;4030;52.362;9.206;2023-12-28T11:52:21;11.70;99.90
7970;DHT22;4030;52.362;9.206;2023-12-28T11:54:48;11.70;99.90
7970;DHT22;4030;52.362;9.206;2023-12-28T11:57:15;11.70;99.80
7970;DHT22;4030;52.362;9.206;2023-12-28T11:59:41;11.70;99.80
7970;DHT22;4030;52.362;9.206;2023-12-28T12:02:07;11.70;99.70
7970;DHT22;4030;52.362;9.206;2023-12-28T12:04:34;11.70;99.70
7970;DHT22;4030;52.362;9.206;2023-12-28T12:07:02;11.80;99.70
7970;DHT22;4030;52.362;9.206;2023-12-28T12:09:31;11.80;99.70
7970;DHT22;4030;52.362;9.206;2023-12-28T12:12:04;11.80;99.70
7970;DHT22;4030;52.362;9.206;2023-12-28T12:14:30;12.00;99.60
7970;DHT22;4030;52.362;9.206;2023-12-28T12:17:00;12.30;99.40
7970;DHT22;4030;52.362;9.206;2023-12-28T12:19:26;12.50;98.90
7970;DHT22;4030;52.362;9.206;2023-12-28T12:21:52;12.60;98.60
7970;DHT22;4030;52.362;9.206;2023-12-28T12:24:19;12.70;98.40
7970;DHT22;4030;52.362;9.206;2023-12-28T12:26:46;12.70;98.20
7970;DHT22;4030;52.362;9.206;2023-12-28T12:29:12;12.80;98.10
7970;DHT22;4030;52.362;9.206;2023-12-28T12:31:39;12.90;98.00
7970;DHT22;4030;52.362;9.206;2023-12-28T12:34:10;12.90;97.90
7970;DHT22;4030;52.362;9.206;2023-12-28T12:36:36;12.90;97.90
7970;DHT22;4030;52.362;9.206;2023-12-28T12:39:03;12.90;97.80
7970;DHT22;4030;52.362;9.206;2023-12-28T12:41:34;12.90;97.70
7970;DHT22;4030;52.362;9.206;2023-12-28T12:44:00;12.90;97.70
7970;DHT22;4030;52.362;9.206;2023-12-28T12:46:26;12.90;97.70
7970;DHT22;4030;52.362;9.206;2023-12-28T12:48:56;13.00;97.60
7970;DHT22;4030;52.362;9.206;2023-12-28T12:51:23;13.10;97.50
7970;DHT22;4030;52.362;9.206;2023-12-28T12:53:49;13.20;97.40
7970;DHT22;4030;52.362;9.206;2023-12-28T12:56:14;13.20;97.30
7970;DHT22;4030;52.362;9.206;2023-12-28T12:58:40;13.30;97.10
7970;DHT22;4030;52.362;9.206;2023-12-28T13:01:10;13.30;97.00
7970;DHT22;4030;52.362;9.206;2023-12-28T13:03:37;13.40;96.90
7970;DHT22;4030;52.362;9.206;2023-12-28T13:06:03;13.40;96.80
7970;DHT22;4030;52.362;9.206;2023-12-28T13:08:29;13.40;96.70
7970;DHT22;4030;52.362;9.206;2023-12-28T13:10:55;13.40;96.60
7970;DHT22;4030;52.362;9.206;2023-12-28T13:13:21;13.40;96.50
7970;DHT22;4030;52.362;9.206;2023-12-28T13:15:47;13.30;96.40
7970;DHT22;4030;52.362;9.206;2023-12-28T13:18:12;13.30;96.40
7970;DHT22;4030;52.362;9.206;2023-12-28T13:20:38;13.30;96.40
7970;DHT22;4030;52.362;9.206;2023-12-28T13:23:04;13.20;96.50
7970;DHT22;4030;52.362;9.206;2023-12-28T13:25:30;13.20;96.50
7970;DHT22;4030;52.362;9.206;2023-12-28T13:27:55;13.10;96.50
7970;DHT22;4030;52.362;9.206;2023-12-28T13:30:21;13.10;96.60
7970;DHT22;4030;52.362;9.206;2023-12-28T13:32:54;13.00;96.60
7970;DHT22;4030;52.362;9.206;2023-12-28T13:35:22;13.00;96.70
7970;DHT22;4030;52.362;9.206;2023-12-28T13:37:48;12.90;96.80
7970;DHT22;4030;52.362;9.206;2023-12-28T13:40:13;12.90;97.00
7970;DHT22;4030;52.362;9.206;2023-12-28T13:42:40;12.80;97.00
7970;DHT22;4030;52.362;9.206;2023-12-28T13:45:07;12.80;97.40
7970;DHT22;4030;52.362;9.206;2023-12-28T13:47:33;12.70;97.00
7970;DHT22;4030;52.362;9.206;2023-12-28T13:49:59;12.70;97.10
7970;DHT22;4030;52.362;9.206;2023-12-28T13:52:24;12.60;97.10
7970;DHT22;4030;52.362;9.206;2023-12-28T13:54:50;12.60;97.20
7970;DHT22;4030;52.362;9.206;2023-12-28T13:57:16;12.50;97.20
7970;DHT22;4030;52.362;9.206;2023-12-28T13:59:42;12.50;97.20
7970;DHT22;4030;52.362;9.206;2023-12-28T14:02:07;12.50;97.30
7970;DHT22;4030;52.362;9.206;2023-12-28T14:04:33;12.40;97.30
7970;DHT22;4030;52.362;9.206;2023-12-28T14:06:59;12.40;97.30
7970;DHT22;4030;52.362;9.206;2023-12-28T14:09:24;12.30;97.40
7970;DHT22;4030;52.362;9.206;2023-12-28T14:11:50;12.20;97.50
7970;DHT22;4030;52.362;9.206;2023-12-28T14:14:16;12.20;97.60
7970;DHT22;4030;52.362;9.206;2023-12-28T14:16:41;12.20;97.60
7970;DHT22;4030;52.362;9.206;2023-12-28T14:19:07;12.20;97.60
7970;DHT22;4030;52.362;9.206;2023-12-28T14:21:38;12.10;97.60
7970;DHT22;4030;52.362;9.206;2023-12-28T14:24:04;12.10;97.70
7970;DHT22;4030;52.362;9.206;2023-12-28T14:26:32;12.10;97.70
7970;DHT22;4030;52.362;9.206;2023-12-28T14:29:01;12.10;97.70
7970;DHT22;4030;52.362;9.206;2023-12-28T14:31:31;12.00;97.70
7970;DHT22;4030;52.362;9.206;2023-12-28T14:33:57;12.00;97.70
7970;DHT22;4030;52.362;9.206;2023-12-28T14:39:00;11.90;97.90
7970;DHT22;4030;52.362;9.206;2023-12-28T14:41:27;11.90;98.00
7970;DHT22;4030;52.362;9.206;2023-12-28T14:43:55;11.80;98.00
7970;DHT22;4030;52.362;9.206;2023-12-28T14:46:21;11.80;98.10
7970;DHT22;4030;52.362;9.206;2023-12-28T14:48:46;11.80;98.20
7970;DHT22;4030;52.362;9.206;2023-12-28T14:51:12;11.70;98.10
7970;DHT22;4030;52.362;9.206;2023-12-28T14:53:38;11.70;98.30
7970;DHT22;4030;52.362;9.206;2023-12-28T14:56:04;11.70;98.40
7970;DHT22;4030;52.362;9.206;2023-12-28T14:58:30;11.70;98.40
7970;DHT22;4030;52.362;9.206;2023-12-28T15:00:55;11.60;98.40
7970;DHT22;4030;52.362;9.206;2023-12-28T15:03:22;11.60;98.50
7970;DHT22;4030;52.362;9.206;2023-12-28T15:05:48;11.60;98.60
7970;DHT22;4030;52.362;9.206;2023-12-28T15:08:13;11.50;98.60
7970;DHT22;4030;52.362;9.206;2023-12-28T15:10:39;11.60;98.70
7970;DHT22;4030;52.362;9.206;2023-12-28T15:13:05;11.50;98.60
7970;DHT22;4030;52.362;9.206;2023-12-28T15:15:32;11.50;98.60
7970;DHT22;4030;52.362;9.206;2023-12-28T15:17:58;11.50;98.60
7970;DHT22;4030;52.362;9.206;2023-12-28T15:20:24;11.40;98.50
7970;DHT22;4030;52.362;9.206;2023-12-28T15:22:52;11.40;98.50
7970;DHT22;4030;52.362;9.206;2023-12-28T15:25:18;11.40;98.50
7970;DHT22;4030;52.362;9.206;2023-12-28T15:27:45;11.40;98.50
7970;DHT22;4030;52.362;9.206;2023-12-28T15:30:11;11.40;98.50
7970;DHT22;4030;52.362;9.206;2023-12-28T15:32:39;11.30;98.50
7970;DHT22;4030;52.362;9.206;2023-12-28T15:35:05;11.30;98.40
7970;DHT22;4030;52.362;9.206;2023-12-28T15:37:34;11.30;98.50
7970;DHT22;4030;52.362;9.206;2023-12-28T15:39:59;11.30;98.50
7970;DHT22;4030;52.362;9.206;2023-12-28T15:42:25;11.30;98.50
7970;DHT22;4030;52.362;9.206;2023-12-28T15:44:51;11.20;98.40
7970;DHT22;4030;52.362;9.206;2023-12-28T15:47:16;11.20;98.50
7970;DHT22;4030;52.362;9.206;2023-12-28T15:49:45;11.20;98.60
7970;DHT22;4030;52.362;9.206;2023-12-28T15:52:11;11.20;98.60
7970;DHT22;4030;52.362;9.206;2023-12-28T15:54:36;13.30;99.60
7970;DHT22;4030;52.362;9.206;2023-12-28T15:57:02;11.20;98.60
7970;DHT22;4030;52.362;9.206;2023-12-28T15:59:28;11.20;98.60
7970;DHT22;4030;52.362;9.206;2023-12-28T16:01:54;11.20;98.60
7970;DHT22;4030;52.362;9.206;2023-12-28T16:04:19;11.10;98.50
7970;DHT22;4030;52.362;9.206;2023-12-28T16:06:45;11.10;98.50
7970;DHT22;4030;52.362;9.206;2023-12-28T16:09:11;11.10;98.50
7970;DHT22;4030;52.362;9.206;2023-12-28T16:11:37;11.10;98.50
7970;DHT22;4030;52.362;9.206;2023-12-28T16:14:03;11.10;98.50
7970;DHT22;4030;52.362;9.206;2023-12-28T16:16:30;11.10;98.50